createdAt,value
2023-09-13T00:00:01.690Z,693.15
2023-09-13T00:17:45.312Z,359.63
2023-09-13T00:20:14.096Z,302.40
2023-09-13T00:22:43.207Z,260.98
2023-09-13T00:25:12.007Z,206.73
2023-09-13T00:27:40.723Z,184.13
2023-09-13T00:30:12.077Z,122.00
2023-09-13T00:32:40.819Z,80.75
2023-09-13T00:35:11.427Z,60.65
2023-09-13T00:37:40.588Z,48.17
2023-09-13T00:40:11.938Z,42.83
2023-09-13T00:42:40.879Z,38.47
2023-09-13T00:45:10.524Z,39.08
2023-09-13T00:47:43.310Z,36.80
2023-09-13T00:50:17.198Z,38.33
2023-09-13T00:52:47.402Z,42.38
2023-09-13T00:55:18.374Z,39.63
2023-09-13T00:57:47.676Z,38.55
2023-09-13T01:00:19.044Z,44.47
2023-09-13T01:02:47.891Z,44.35
2023-09-13T01:05:18.325Z,44.25
2023-09-13T01:07:48.614Z,45.45
2023-09-13T01:10:20.930Z,49.00
2023-09-13T01:12:49.685Z,59.15
2023-09-13T01:15:18.557Z,58.78
2023-09-13T01:17:55.117Z,54.33
2023-09-13T01:20:39.773Z,54.58
2023-09-13T02:22:27.506Z,147.65
2023-09-13T02:24:57.026Z,122.75
2023-09-13T02:27:26.412Z,122.45
2023-09-13T02:30:01.243Z,125.72
2023-09-13T02:32:36.229Z,130.55
2023-09-13T02:35:08.198Z,125.97
2023-09-13T02:37:41.644Z,139.45
2023-09-13T02:40:20.325Z,125.15
2023-09-13T02:42:55.936Z,135.63
2023-09-13T02:45:26.247Z,136.98
2023-09-13T02:48:13.477Z,133.70
2023-09-13T02:50:49.328Z,138.98
2023-09-13T02:53:36.811Z,137.27
2023-09-13T02:56:07.222Z,135.18
2023-09-13T02:58:38.921Z,137.65
2023-09-13T03:01:22.630Z,138.90
2023-09-13T03:03:53.613Z,141.33
2023-09-13T03:06:25.431Z,161.77
2023-09-13T03:09:04.377Z,145.10
2023-09-13T03:11:39.473Z,177.30
2023-09-13T03:14:10.778Z,152.20
2023-09-13T03:16:50.654Z,154.05
2023-09-13T03:19:25.131Z,136.35
2023-09-13T03:21:58.460Z,151.98
2023-09-13T03:24:32.230Z,184.77
2023-09-13T03:27:04.107Z,161.82
2023-09-13T03:29:34.675Z,155.48
2023-09-13T03:32:16.893Z,153.52
2023-09-13T03:34:53.856Z,233.65
2023-09-13T03:37:27.673Z,169.40
2023-09-13T03:40:17.377Z,182.02
2023-09-13T03:43:12.076Z,155.57
2023-09-13T03:45:41.187Z,171.15
2023-09-13T03:48:10.451Z,176.32
2023-09-13T03:50:44.329Z,253.10
2023-09-13T03:53:13.870Z,257.25
2023-09-13T03:55:44.503Z,207.65
2023-09-13T03:58:13.713Z,228.95
2023-09-13T04:00:42.557Z,291.83
2023-09-13T04:03:11.324Z,236.57
2023-09-13T04:05:40.320Z,209.05
2023-09-13T04:08:08.885Z,200.48
2023-09-13T04:10:37.395Z,161.90
2023-09-13T04:13:09.747Z,184.70
2023-09-13T04:15:38.615Z,184.18
2023-09-13T04:18:09.511Z,175.13
2023-09-13T04:20:40.197Z,186.27
2023-09-13T04:23:08.999Z,221.25
2023-09-13T04:47:13.250Z,174.80
2023-09-13T04:49:52.079Z,198.98
2023-09-13T04:52:30.514Z,215.88
2023-09-13T04:55:00.681Z,218.10
2023-09-13T04:57:37.593Z,269.20
2023-09-13T05:13:32.141Z,362.77
2023-09-13T05:16:04.226Z,380.40
2023-09-13T05:18:37.061Z,375.42
2023-09-13T05:21:14.559Z,415.33
2023-09-13T05:23:53.853Z,356.90
2023-09-13T05:26:34.417Z,342.23
2023-09-13T05:29:25.640Z,425.38
2023-09-13T05:32:09.155Z,380.85
2023-09-13T05:35:04.277Z,401.17
2023-09-13T05:40:40.890Z,414.55
2023-09-13T05:46:12.576Z,420.45
2023-09-13T05:49:19.843Z,441.10
2023-09-13T05:51:53.423Z,534.75
2023-09-13T05:54:33.410Z,583.92
2023-09-13T05:57:16.196Z,505.00
2023-09-13T05:59:58.955Z,544.78
2023-09-13T06:13:22.733Z,577.37
2023-09-13T06:15:51.281Z,526.97
2023-09-13T06:18:19.730Z,531.17
2023-09-13T06:20:48.639Z,580.67
2023-09-13T06:23:35.441Z,552.10
2023-09-13T06:26:04.272Z,548.38
2023-09-13T06:28:34.374Z,528.83
2023-09-13T06:31:04.942Z,525.60
2023-09-13T06:33:42.140Z,540.08
2023-09-13T06:36:11.866Z,544.55
2023-09-13T06:38:41.054Z,536.05
2023-09-13T06:41:10.606Z,539.00
2023-09-13T06:44:01.218Z,505.33
2023-09-13T06:46:31.387Z,543.00
2023-09-13T06:49:02.359Z,539.75
2023-09-13T06:54:05.826Z,582.65
2023-09-13T06:56:37.578Z,661.63
2023-09-13T07:02:05.999Z,722.85
2023-09-13T07:04:35.909Z,732.50
2023-09-13T07:07:08.963Z,718.05
2023-09-13T07:09:37.774Z,734.75
2023-09-13T07:12:07.216Z,746.25
2023-09-13T07:14:37.463Z,737.42
2023-09-13T07:17:06.576Z,718.28
2023-09-13T07:19:35.380Z,709.55
2023-09-13T07:22:04.619Z,751.85
2023-09-13T07:24:33.153Z,704.50
2023-09-13T07:27:02.264Z,728.58
2023-09-13T07:29:30.735Z,698.28
2023-09-13T07:32:00.603Z,647.60
2023-09-13T07:34:32.294Z,686.53
2023-09-13T07:37:01.135Z,620.75
2023-09-13T07:39:29.772Z,639.25
2023-09-13T07:41:58.573Z,704.58
2023-09-13T07:44:27.050Z,754.38
2023-09-13T07:46:55.620Z,685.30
2023-09-13T07:49:26.699Z,687.00
2023-09-13T07:51:55.347Z,694.08
2023-09-13T07:54:23.830Z,706.80
2023-09-13T07:56:52.406Z,696.38
2023-09-13T07:59:21.840Z,733.78
2023-09-13T08:01:51.534Z,776.05
2023-09-13T08:04:20.876Z,723.08
2023-09-13T08:06:50.915Z,710.00
2023-09-13T08:09:19.621Z,699.15
2023-09-13T08:11:48.532Z,710.75
2023-09-13T08:14:17.245Z,726.95
2023-09-13T08:16:45.907Z,732.28
2023-09-13T08:19:14.709Z,767.65
2023-09-13T08:21:43.633Z,719.95
2023-09-13T08:24:13.701Z,746.17
2023-09-13T08:26:42.277Z,751.80
2023-09-13T08:29:10.915Z,775.70
2023-09-13T08:31:39.667Z,767.30
2023-09-13T08:34:08.536Z,770.53
2023-09-13T08:36:37.101Z,808.08
2023-09-13T08:39:06.418Z,795.65
2023-09-13T08:41:36.453Z,765.58
2023-09-13T08:44:06.558Z,737.83
2023-09-13T08:46:35.291Z,720.35
2023-09-13T08:49:06.351Z,730.67
2023-09-13T08:51:36.462Z,703.67
2023-09-13T08:54:05.593Z,715.65
2023-09-13T08:56:35.579Z,708.83
2023-09-13T08:59:04.404Z,714.30
2023-09-13T09:01:34.089Z,700.15
2023-09-13T09:04:02.738Z,651.20
2023-09-13T09:06:32.498Z,675.47
2023-09-13T09:09:01.422Z,614.75
2023-09-13T09:11:30.376Z,572.10
2023-09-13T09:14:00.758Z,629.38
2023-09-13T09:16:29.775Z,672.08
2023-09-13T09:19:00.562Z,625.22
2023-09-13T09:21:29.589Z,582.25
2023-09-13T09:23:59.151Z,532.28
2023-09-13T09:26:27.995Z,691.75
2023-09-13T09:28:56.769Z,657.05
2023-09-13T09:31:28.201Z,705.22
2023-09-13T09:34:04.931Z,712.63
2023-09-13T09:36:35.903Z,702.60
2023-09-13T09:39:05.357Z,702.47
2023-09-13T09:41:34.501Z,790.05
2023-09-13T09:44:03.297Z,714.28
2023-09-13T09:46:33.922Z,703.05
2023-09-13T09:49:03.813Z,727.78
2023-09-13T09:51:34.037Z,702.35
2023-09-13T09:54:03.120Z,714.13
2023-09-13T09:56:32.469Z,729.10
2023-09-13T09:59:01.531Z,731.90
2023-09-13T10:01:32.464Z,699.97
2023-09-13T10:04:11.905Z,704.30
2023-09-13T10:06:45.239Z,705.95
2023-09-13T10:09:14.241Z,721.87
2023-09-13T10:11:42.815Z,706.92
2023-09-13T10:14:11.390Z,708.40
2023-09-13T10:16:39.850Z,700.15
2023-09-13T10:19:12.942Z,655.95
2023-09-13T10:21:42.284Z,722.25
2023-09-13T10:24:11.986Z,682.42
2023-09-13T10:26:41.382Z,747.20
2023-09-13T10:29:14.513Z,709.55
2023-09-13T10:31:46.134Z,685.63
2023-09-13T10:34:25.301Z,696.22
2023-09-13T10:36:58.400Z,710.13
2023-09-13T10:39:31.973Z,708.53
2023-09-13T10:42:05.622Z,695.00
2023-09-13T10:44:37.253Z,745.38
2023-09-13T10:47:06.579Z,726.60
2023-09-13T10:49:38.219Z,717.83
2023-09-13T10:52:08.255Z,765.25
2023-09-13T10:54:37.944Z,785.00
2023-09-13T10:57:07.424Z,784.42
2023-09-13T11:03:22.302Z,819.15
2023-09-13T11:08:52.596Z,849.50
2023-09-13T11:48:57.220Z,823.70
2023-09-13T11:51:42.991Z,797.28
2023-09-13T11:54:19.006Z,820.60
2023-09-13T11:56:50.148Z,823.17
2023-09-13T11:59:20.899Z,823.15
2023-09-13T12:01:55.366Z,779.30
2023-09-13T12:07:02.775Z,797.20
2023-09-13T12:09:35.084Z,778.17
2023-09-13T12:12:07.128Z,784.97
2023-09-13T12:14:57.790Z,793.80
2023-09-13T12:17:39.116Z,781.70
2023-09-13T12:20:11.418Z,812.22
2023-09-13T12:22:41.664Z,887.08
2023-09-13T12:25:12.357Z,817.30
2023-09-13T12:27:41.114Z,816.15
2023-09-13T12:30:11.285Z,826.35
2023-09-13T12:32:39.877Z,821.30
2023-09-13T12:35:10.388Z,834.45
2023-09-13T12:37:38.837Z,893.05
2023-09-13T12:40:14.969Z,824.58
2023-09-13T12:42:43.910Z,815.03
2023-09-13T12:45:13.646Z,834.15
2023-09-13T12:47:42.236Z,812.80
2023-09-13T12:50:28.437Z,811.55
2023-09-13T12:53:03.370Z,835.90
2023-09-13T12:55:33.673Z,823.22
2023-09-13T12:58:08.312Z,832.67
2023-09-13T13:00:49.813Z,828.15
2023-09-13T13:03:18.789Z,815.30
2023-09-13T13:05:49.189Z,831.33
2023-09-13T13:08:17.876Z,831.60
2023-09-13T13:10:57.367Z,844.30
2023-09-13T13:13:32.961Z,837.85
2023-09-13T13:16:02.614Z,848.28
2023-09-13T13:18:33.691Z,839.17
2023-09-13T13:21:35.888Z,843.90
2023-09-13T13:24:07.356Z,831.53
2023-09-13T13:26:35.928Z,838.25
2023-09-13T13:29:11.122Z,854.10
2023-09-13T13:31:39.776Z,836.45
2023-09-13T13:34:08.452Z,816.63
2023-09-13T13:36:38.286Z,811.30
2023-09-13T13:39:07.736Z,873.17
2023-09-13T13:41:36.451Z,821.30
2023-09-13T13:44:05.185Z,810.92
2023-09-13T13:46:33.715Z,830.65
2023-09-13T13:49:03.948Z,836.58
2023-09-13T13:51:32.581Z,812.17
2023-09-13T13:54:03.741Z,861.35
2023-09-13T13:56:32.539Z,820.53
2023-09-13T13:59:01.773Z,818.10
2023-09-13T14:01:30.821Z,823.58
2023-09-13T14:03:59.447Z,817.45
2023-09-13T14:06:28.219Z,831.03
2023-09-13T14:08:56.748Z,818.75
2023-09-13T14:11:27.527Z,885.58
2023-09-13T14:13:56.095Z,803.42
2023-09-13T14:16:24.695Z,792.83
2023-09-13T14:18:53.329Z,803.20
2023-09-13T14:21:22.086Z,906.03
2023-09-13T14:23:51.688Z,830.28
2023-09-13T14:26:20.220Z,815.92
2023-09-13T14:28:50.081Z,835.47
2023-09-13T14:31:20.215Z,807.55
2023-09-13T14:33:50.962Z,800.70
2023-09-13T14:36:19.704Z,810.78
2023-09-13T14:38:48.253Z,804.53
2023-09-13T14:41:16.804Z,833.35
2023-09-13T14:43:45.370Z,814.72
2023-09-13T14:46:15.472Z,802.55
2023-09-13T14:48:44.479Z,819.97
2023-09-13T14:51:13.515Z,816.45
2023-09-13T14:53:41.997Z,802.45
2023-09-13T14:56:10.833Z,833.97
2023-09-13T14:58:39.709Z,839.35
2023-09-13T15:01:08.352Z,811.22
2023-09-13T15:03:38.403Z,808.50
2023-09-13T15:06:07.404Z,844.03
2023-09-13T15:08:35.913Z,817.63
2023-09-13T15:11:05.026Z,806.50
2023-09-13T15:13:33.706Z,863.10
2023-09-13T15:16:02.389Z,831.28
2023-09-13T15:18:35.534Z,805.80
2023-09-13T15:21:06.109Z,845.75
2023-09-13T15:23:34.940Z,829.58
2023-09-13T15:26:03.843Z,807.90
2023-09-13T15:28:32.434Z,794.92
2023-09-13T15:31:01.033Z,795.47
2023-09-13T15:33:29.948Z,829.90
2023-09-13T15:35:58.555Z,786.72
2023-09-13T15:38:28.542Z,828.92
2023-09-13T15:40:57.554Z,777.90
2023-09-13T15:43:26.029Z,743.10
2023-09-13T15:45:56.539Z,712.55
2023-09-13T15:48:25.381Z,742.17
2023-09-13T15:50:53.984Z,701.50
2023-09-13T15:53:22.765Z,751.78
2023-09-13T15:55:55.891Z,721.40
2023-09-13T15:58:24.405Z,791.97
2023-09-13T16:00:53.175Z,774.30
2023-09-13T16:03:21.977Z,812.17
2023-09-13T16:08:43.925Z,814.08
2023-09-13T16:15:04.293Z,797.70
2023-09-13T16:17:32.910Z,799.85
2023-09-13T16:20:01.674Z,780.58
2023-09-13T16:22:31.401Z,791.30
2023-09-13T16:25:04.489Z,786.70
2023-09-13T16:27:33.128Z,785.65
2023-09-13T16:30:31.741Z,796.88
2023-09-13T16:33:02.711Z,792.83
2023-09-13T17:03:02.950Z,721.85
2023-09-13T17:05:32.974Z,715.60
2023-09-13T17:08:01.514Z,701.50
2023-09-13T17:10:31.329Z,678.95
2023-09-13T17:13:00.138Z,608.40
2023-09-13T17:15:29.926Z,608.17
2023-09-13T17:17:59.921Z,625.63
2023-09-13T17:20:33.477Z,575.60
2023-09-13T17:23:04.110Z,550.40
2023-09-13T17:25:32.999Z,532.42
2023-09-13T17:28:01.994Z,540.55
2023-09-13T17:30:35.790Z,513.72
2023-09-13T17:33:07.046Z,517.58
2023-09-13T17:35:41.917Z,521.70
2023-09-13T17:38:14.732Z,499.92
2023-09-13T17:40:43.591Z,500.25
2023-09-13T17:43:12.395Z,517.08
2023-09-13T17:45:42.549Z,515.92
2023-09-13T17:48:12.501Z,533.28
2023-09-13T17:50:41.840Z,518.72
2023-09-13T17:53:11.719Z,599.33
2023-09-13T17:55:44.532Z,637.92
2023-09-13T17:58:13.101Z,628.20
2023-09-13T18:00:41.789Z,595.72
2023-09-13T18:03:11.990Z,676.78
2023-09-13T18:05:42.532Z,629.42
2023-09-13T18:08:15.374Z,664.50
2023-09-13T18:10:47.431Z,674.80
2023-09-13T18:13:18.052Z,641.72
2023-09-13T18:15:48.930Z,622.47
2023-09-13T18:18:17.871Z,628.13
2023-09-13T18:20:48.289Z,664.85
2023-09-13T18:23:20.734Z,694.45
2023-09-13T18:25:53.399Z,597.05
2023-09-13T18:28:22.083Z,588.53
2023-09-13T18:31:06.045Z,570.58
2023-09-13T18:33:39.250Z,617.58
2023-09-13T18:36:14.265Z,624.17
2023-09-13T18:38:43.998Z,660.03
2023-09-13T18:41:14.459Z,617.15
2023-09-13T18:43:46.343Z,587.58
2023-09-13T18:46:19.515Z,613.60
2023-09-13T18:48:53.011Z,629.73
2023-09-13T18:51:23.518Z,607.22
2023-09-13T18:53:56.961Z,620.25
2023-09-13T18:56:27.515Z,599.60
2023-09-13T18:58:56.584Z,565.40
2023-09-13T19:01:25.794Z,586.47
2023-09-13T19:03:55.815Z,547.70
2023-09-13T19:06:29.762Z,582.58
2023-09-13T19:08:58.605Z,633.95
2023-09-13T19:11:35.947Z,661.28
2023-09-13T19:14:07.617Z,655.92
2023-09-13T19:16:39.226Z,622.50
2023-09-13T19:19:10.021Z,623.47
2023-09-13T19:21:40.923Z,630.47
2023-09-13T19:24:13.312Z,594.90
2023-09-13T19:26:45.159Z,608.75
2023-09-13T19:29:16.842Z,658.30
2023-09-13T19:31:51.216Z,685.80
2023-09-13T19:34:21.924Z,644.33
2023-09-13T19:36:50.840Z,653.45
2023-09-13T19:39:22.671Z,647.25
2023-09-13T19:41:52.876Z,612.20
2023-09-13T19:44:25.415Z,616.85
2023-09-13T19:46:57.739Z,562.83
2023-09-13T19:49:28.647Z,532.05
2023-09-13T19:52:02.663Z,614.75
2023-09-13T19:54:33.193Z,532.40
2023-09-13T19:57:08.586Z,519.20
2023-09-13T19:59:39.138Z,540.80
2023-09-13T20:02:14.328Z,522.55
2023-09-13T20:04:43.361Z,519.22
2023-09-13T20:07:13.820Z,536.22
2023-09-13T20:09:47.212Z,519.85
2023-09-13T20:12:17.399Z,520.30
2023-09-13T20:14:46.113Z,519.25
2023-09-13T20:17:15.386Z,514.78
2023-09-13T20:19:43.946Z,519.45
2023-09-13T20:22:12.582Z,521.22
2023-09-13T20:24:41.092Z,521.30
2023-09-13T20:27:10.052Z,534.22
2023-09-13T20:29:39.858Z,530.95
2023-09-13T20:32:08.822Z,532.63
2023-09-13T20:34:37.627Z,501.42
2023-09-13T20:37:06.301Z,511.48
2023-09-13T20:39:35.148Z,530.92
2023-09-13T20:42:03.982Z,511.13
2023-09-13T20:44:32.465Z,529.72
2023-09-13T20:47:02.573Z,531.65
2023-09-13T20:49:31.822Z,520.38
2023-09-13T20:52:00.666Z,569.38
2023-09-13T20:54:29.545Z,525.45
2023-09-13T20:56:58.812Z,531.47
2023-09-13T20:59:27.302Z,532.72
2023-09-13T21:01:55.760Z,573.85
2023-09-13T21:04:25.858Z,562.20
2023-09-13T21:06:56.813Z,563.80
2023-09-13T21:09:25.484Z,572.95
2023-09-13T21:11:54.151Z,542.60
2023-09-13T21:14:22.946Z,585.30
2023-09-13T21:16:51.341Z,602.05
2023-09-13T21:19:20.941Z,601.30
2023-09-13T21:21:52.386Z,543.38
2023-09-13T21:24:21.196Z,554.95
2023-09-13T21:26:51.988Z,547.65
2023-09-13T21:29:20.593Z,548.88
2023-09-13T21:31:49.545Z,558.67
2023-09-13T21:34:18.024Z,548.95
2023-09-13T21:36:46.591Z,547.83
2023-09-13T21:39:16.664Z,540.70
2023-09-13T21:41:45.206Z,579.65
2023-09-13T21:44:13.667Z,536.28
2023-09-13T21:46:42.209Z,534.95
2023-09-13T21:49:11.278Z,535.70
2023-09-13T21:51:39.724Z,509.33
2023-09-13T21:54:08.661Z,456.25
2023-09-13T21:56:38.720Z,510.40
2023-09-13T21:59:07.663Z,359.08
2023-09-13T22:01:36.580Z,377.58
2023-09-13T22:04:05.796Z,327.75
2023-09-13T22:06:34.787Z,340.45
2023-09-13T22:09:03.538Z,430.25
2023-09-13T22:11:32.280Z,396.83
2023-09-13T22:14:02.522Z,332.38
2023-09-13T22:16:32.079Z,311.15
2023-09-13T22:19:00.814Z,286.65
2023-09-13T22:21:32.722Z,297.52
2023-09-13T22:24:01.529Z,337.70
2023-09-13T22:26:30.642Z,245.35
2023-09-13T22:28:59.745Z,250.15
2023-09-13T22:31:29.828Z,187.70
2023-09-13T22:33:59.031Z,200.15
2023-09-13T22:36:28.570Z,174.10
2023-09-13T22:39:07.665Z,132.77
2023-09-13T22:41:41.525Z,102.43
2023-09-13T22:44:10.521Z,114.40
2023-09-13T22:46:40.731Z,153.32
2023-09-13T22:49:11.329Z,141.68
2023-09-13T22:51:40.095Z,131.48
2023-09-13T22:54:08.983Z,100.18
2023-09-13T22:56:37.755Z,99.25
2023-09-13T22:59:06.639Z,83.03
2023-09-13T23:01:35.383Z,75.65
2023-09-13T23:04:06.140Z,59.25
2023-09-13T23:06:35.157Z,71.13
2023-09-13T23:09:05.672Z,72.03
2023-09-13T23:11:34.396Z,89.68
2023-09-13T23:14:02.993Z,52.13
2023-09-13T23:16:32.006Z,58.53
2023-09-13T23:19:00.827Z,38.08
2023-09-13T23:21:32.277Z,47.28
2023-09-13T23:24:01.423Z,49.67
2023-09-13T23:26:30.166Z,45.08
2023-09-13T23:29:03.816Z,45.67
2023-09-13T23:31:35.315Z,39.92
2023-09-13T23:34:06.153Z,52.70
2023-09-13T23:36:36.300Z,58.30
2023-09-13T23:39:06.196Z,52.35
2023-09-13T23:41:34.878Z,52.50
2023-09-13T23:44:04.128Z,42.42
2023-09-13T23:46:32.636Z,58.95
2023-09-13T23:49:01.322Z,53.33
2023-09-13T23:51:31.490Z,63.15
2023-09-13T23:54:03.139Z,99.70
2023-09-13T23:56:31.824Z,81.15
2023-09-13T23:59:05.745Z,78.20
